createdAt,value
2023-04-08T00:01:42.467Z,4.50
2023-04-08T00:04:10.448Z,4.40
2023-04-08T00:06:39.357Z,4.50
2023-04-08T00:09:07.174Z,4.50
2023-04-08T00:11:36.208Z,4.50
2023-04-08T00:14:04.868Z,4.50
2023-04-08T00:16:34.119Z,4.60
2023-04-08T00:19:03.220Z,4.50
2023-04-08T00:21:32.255Z,4.50
2023-04-08T00:24:01.697Z,4.50
2023-04-08T00:26:30.569Z,4.60
2023-04-08T00:28:58.084Z,4.70
2023-04-08T00:31:26.617Z,4.70
2023-04-08T00:33:54.486Z,4.60
2023-04-08T00:36:23.278Z,4.70
2023-04-08T00:38:53.200Z,4.70
2023-04-08T00:41:21.905Z,4.70
2023-04-08T00:43:51.376Z,4.60
2023-04-08T00:46:20.950Z,4.60
2023-04-08T00:48:49.299Z,4.60
2023-04-08T00:51:18.590Z,4.60
2023-04-08T00:53:46.405Z,4.70
2023-04-08T00:56:14.582Z,4.70
2023-04-08T00:58:43.107Z,4.70
2023-04-08T01:01:26.462Z,4.70
2023-04-08T01:04:22.612Z,4.70
2023-04-08T01:07:01.744Z,4.70
2023-04-08T01:09:34.454Z,4.90
2023-04-08T01:12:07.165Z,4.90
2023-04-08T01:14:39.393Z,4.80
2023-04-08T01:17:09.157Z,4.80
2023-04-08T01:19:40.244Z,4.90
2023-04-08T01:22:32.919Z,4.90
2023-04-08T01:25:09.091Z,4.90
2023-04-08T01:27:38.461Z,4.90
2023-04-08T01:30:08.271Z,4.90
2023-04-08T01:32:37.843Z,4.90
2023-04-08T01:35:06.589Z,5.00
2023-04-08T01:37:35.584Z,5.00
2023-04-08T01:40:05.198Z,5.00
2023-04-08T01:42:35.658Z,5.10
2023-04-08T01:45:05.445Z,5.00
2023-04-08T01:47:36.115Z,5.10
2023-04-08T01:50:06.667Z,5.10
2023-04-08T01:52:38.077Z,5.10
2023-04-08T01:55:06.258Z,5.20
2023-04-08T01:57:37.997Z,5.20
2023-04-08T02:00:10.614Z,5.20
2023-04-08T02:02:53.960Z,5.30
2023-04-08T02:05:25.149Z,5.30
2023-04-08T02:07:53.806Z,5.30
2023-04-08T02:10:21.682Z,5.30
2023-04-08T02:12:50.152Z,5.30
2023-04-08T02:15:18.398Z,5.40
2023-04-08T02:18:01.190Z,5.40
2023-04-08T02:20:49.306Z,5.50
2023-04-08T02:23:29.852Z,5.50
2023-04-08T02:25:57.940Z,5.50
2023-04-08T02:28:30.898Z,5.50
2023-04-08T02:31:01.065Z,5.50
2023-04-08T02:33:31.136Z,5.50
2023-04-08T02:36:00.622Z,5.30
2023-04-08T02:38:31.156Z,5.30
2023-04-08T02:40:59.680Z,5.20
2023-04-08T02:43:32.612Z,5.10
2023-04-08T02:46:03.923Z,5.00
2023-04-08T02:48:32.319Z,5.00
2023-04-08T02:51:00.158Z,5.00
2023-04-08T02:53:28.257Z,5.00
2023-04-08T02:55:56.584Z,4.90
2023-04-08T02:58:24.755Z,4.90
2023-04-08T03:00:52.715Z,4.90
2023-04-08T03:03:27.753Z,4.90
2023-04-08T03:05:59.044Z,4.90
2023-04-08T03:08:27.572Z,4.90
2023-04-08T03:10:55.732Z,4.90
2023-04-08T03:13:24.273Z,4.80
2023-04-08T03:15:52.212Z,4.80
2023-04-08T03:18:20.322Z,4.90
2023-04-08T03:20:48.348Z,4.90
2023-04-08T03:23:16.891Z,4.80
2023-04-08T03:25:44.686Z,4.70
2023-04-08T03:28:14.493Z,4.70
2023-04-08T03:30:42.541Z,4.70
2023-04-08T03:33:10.507Z,4.70
2023-04-08T03:35:39.294Z,4.80
2023-04-08T03:38:07.484Z,4.80
2023-04-08T03:40:35.358Z,4.90
2023-04-08T03:43:03.675Z,4.90
2023-04-08T03:45:31.421Z,4.90
2023-04-08T03:47:59.656Z,4.90
2023-04-08T03:50:27.370Z,4.90
2023-04-08T03:52:55.819Z,4.90
2023-04-08T03:55:23.835Z,4.90
2023-04-08T03:57:52.236Z,5.00
2023-04-08T04:00:19.958Z,5.00
2023-04-08T04:02:48.252Z,5.00
2023-04-08T04:05:16.080Z,5.00
2023-04-08T04:07:44.148Z,5.00
2023-04-08T04:10:12.222Z,4.90
2023-04-08T04:12:40.518Z,4.90
2023-04-08T04:15:08.651Z,5.00
2023-04-08T04:17:36.664Z,5.00
2023-04-08T04:20:06.797Z,5.00
2023-04-08T04:22:34.963Z,5.00
2023-04-08T04:25:02.724Z,5.00
2023-04-08T04:27:32.008Z,5.00
2023-04-08T04:30:01.423Z,5.00
2023-04-08T04:32:29.872Z,5.10
2023-04-08T04:34:57.568Z,5.10
2023-04-08T04:37:26.726Z,5.10
2023-04-08T04:39:54.263Z,5.20
2023-04-08T04:42:22.339Z,5.30
2023-04-08T04:44:50.160Z,5.30
2023-04-08T04:47:19.092Z,5.20
2023-04-08T04:49:48.626Z,5.30
2023-04-08T04:52:17.002Z,5.30
2023-04-08T04:54:46.395Z,5.30
2023-04-08T04:57:14.382Z,5.30
2023-04-08T04:59:42.168Z,5.30
2023-04-08T05:02:10.406Z,5.30
2023-04-08T05:04:38.630Z,5.30
2023-04-08T05:07:06.961Z,5.30
2023-04-08T05:09:34.844Z,5.30
2023-04-08T05:12:03.148Z,5.30
2023-04-08T05:14:31.126Z,5.30
2023-04-08T05:16:59.244Z,5.30
2023-04-08T05:19:26.965Z,5.30
2023-04-08T05:21:54.875Z,5.30
2023-04-08T05:24:22.673Z,5.30
2023-04-08T05:26:53.815Z,5.30
2023-04-08T05:29:22.293Z,5.30
2023-04-08T05:31:50.700Z,5.30
2023-04-08T05:34:23.350Z,5.30
2023-04-08T05:36:52.332Z,5.30
2023-04-08T05:39:20.480Z,5.20
2023-04-08T05:41:50.080Z,5.10
2023-04-08T05:44:17.812Z,5.10
2023-04-08T05:46:46.222Z,5.00
2023-04-08T05:49:13.977Z,5.00
2023-04-08T05:51:42.346Z,5.00
2023-04-08T05:54:10.486Z,5.00
2023-04-08T05:56:38.654Z,5.00
2023-04-08T05:59:06.489Z,5.00
2023-04-08T06:01:34.612Z,5.00
2023-04-08T06:04:02.774Z,5.00
2023-04-08T06:06:31.420Z,5.00
2023-04-08T06:08:59.186Z,5.00
2023-04-08T06:11:27.654Z,5.00
2023-04-08T06:13:55.684Z,4.90
2023-04-08T06:16:23.932Z,4.80
2023-04-08T06:18:52.475Z,4.90
2023-04-08T06:21:21.912Z,4.80
2023-04-08T06:23:49.897Z,4.80
2023-04-08T06:26:19.488Z,4.80
2023-04-08T06:28:47.272Z,4.80
2023-04-08T06:31:15.681Z,4.70
2023-04-08T06:33:43.684Z,4.70
2023-04-08T06:36:13.598Z,4.70
2023-04-08T06:38:41.454Z,4.70
2023-04-08T06:41:09.800Z,4.70
2023-04-08T06:43:38.175Z,4.70
2023-04-08T06:46:07.501Z,4.70
2023-04-08T06:48:38.021Z,4.70
2023-04-08T06:51:08.154Z,4.70
2023-04-08T06:53:36.115Z,4.70
2023-04-08T06:56:04.651Z,4.70
2023-04-08T06:58:33.035Z,4.70
2023-04-08T07:01:01.825Z,4.70
2023-04-08T07:03:29.747Z,4.70
2023-04-08T07:05:58.045Z,4.70
2023-04-08T07:08:26.024Z,4.80
2023-04-08T07:10:54.496Z,4.70
2023-04-08T07:13:23.892Z,4.70
2023-04-08T07:15:52.705Z,4.70
2023-04-08T07:18:22.160Z,4.70
2023-04-08T07:20:58.238Z,4.80
2023-04-08T07:23:26.029Z,4.80
2023-04-08T07:25:54.578Z,4.70
2023-04-08T07:28:22.606Z,4.70
2023-04-08T07:30:50.738Z,4.70
2023-04-08T07:33:18.890Z,4.70
2023-04-08T07:35:47.079Z,4.70
2023-04-08T07:38:14.982Z,4.60
2023-04-08T07:40:43.244Z,4.70
2023-04-08T07:43:12.484Z,4.70
2023-04-08T07:45:40.853Z,4.70
2023-04-08T07:48:08.678Z,4.70
2023-04-08T07:51:07.578Z,4.70
2023-04-08T07:53:28.155Z,4.70
2023-04-08T07:55:56.458Z,4.80
2023-04-08T07:58:25.657Z,4.90
2023-04-08T08:00:54.550Z,5.00
2023-04-08T08:03:22.671Z,5.00
2023-04-08T08:05:51.017Z,5.00
2023-04-08T08:08:18.819Z,5.00
2023-04-08T08:10:47.137Z,5.00
2023-04-08T08:13:18.252Z,5.00
2023-04-08T08:15:46.460Z,5.00
2023-04-08T08:18:14.644Z,5.00
2023-04-08T08:20:42.615Z,5.00
2023-04-08T08:23:10.740Z,5.10
2023-04-08T08:25:39.006Z,5.10
2023-04-08T08:28:06.812Z,5.00
2023-04-08T08:30:34.888Z,5.00
2023-04-08T08:33:02.557Z,5.00
2023-04-08T08:35:30.963Z,5.00
2023-04-08T08:37:59.001Z,5.00
2023-04-08T08:40:27.435Z,5.00
2023-04-08T08:42:55.444Z,5.00
2023-04-08T08:45:24.566Z,4.90
2023-04-08T08:47:54.958Z,5.00
2023-04-08T08:50:23.129Z,5.00
2023-04-08T08:52:54.097Z,4.90
2023-04-08T08:57:54.144Z,4.90
2023-04-08T09:00:37.038Z,4.90
2023-04-08T09:03:17.236Z,5.00
2023-04-08T09:05:49.998Z,5.30
2023-04-08T09:08:32.355Z,5.40
2023-04-08T09:11:13.144Z,5.50
2023-04-08T09:13:41.548Z,5.60
2023-04-08T09:16:11.697Z,5.60
2023-04-08T09:18:41.321Z,5.50
2023-04-08T09:21:09.924Z,5.60
2023-04-08T09:23:47.202Z,5.70
2023-04-08T09:26:24.491Z,5.80
2023-04-08T09:29:24.904Z,5.80
2023-04-08T09:31:59.217Z,5.80
2023-04-08T09:34:29.045Z,5.80
2023-04-08T09:36:57.368Z,6.00
2023-04-08T09:39:25.319Z,6.10
2023-04-08T09:41:55.302Z,6.20
2023-04-08T09:44:28.976Z,6.20
2023-04-08T09:47:06.597Z,6.30
2023-04-08T09:50:06.343Z,6.40
2023-04-08T09:52:46.082Z,6.60
2023-04-08T09:55:15.293Z,6.90
2023-04-08T09:58:09.434Z,7.10
2023-04-08T10:00:44.227Z,7.50
2023-04-08T10:03:32.331Z,7.80
2023-04-08T10:06:03.718Z,8.20
2023-04-08T10:08:33.601Z,8.40
2023-04-08T10:11:01.604Z,8.50
2023-04-08T10:13:30.888Z,8.40
2023-04-08T10:16:22.854Z,8.20
2023-04-08T10:18:53.550Z,7.90
2023-04-08T10:21:37.642Z,7.80
2023-04-08T10:24:12.026Z,7.50
2023-04-08T10:26:44.727Z,7.30
2023-04-08T10:29:33.253Z,7.10
2023-04-08T10:32:02.374Z,7.00
2023-04-08T10:34:31.046Z,7.10
2023-04-08T10:37:02.540Z,7.30
2023-04-08T10:39:31.940Z,7.50
2023-04-08T10:42:02.907Z,7.70
2023-04-08T10:44:31.353Z,7.90
2023-04-08T10:46:59.167Z,8.00
2023-04-08T10:49:35.148Z,7.80
2023-04-08T10:52:08.553Z,7.60
2023-04-08T10:54:37.643Z,7.40
2023-04-08T10:57:06.314Z,7.20
2023-04-08T10:59:34.690Z,7.30
2023-04-08T11:02:03.220Z,7.50
2023-04-08T11:04:32.976Z,7.40
2023-04-08T11:07:09.657Z,7.40
2023-04-08T11:09:38.341Z,7.30
2023-04-08T11:12:06.314Z,7.30
2023-04-08T11:14:39.671Z,7.40
2023-04-08T11:17:09.474Z,7.50
2023-04-08T11:19:38.501Z,7.50
2023-04-08T11:22:09.662Z,7.40
2023-04-08T11:24:38.638Z,7.20
2023-04-08T11:27:08.306Z,7.20
2023-04-08T11:29:38.921Z,7.20
2023-04-08T11:32:06.910Z,7.50
2023-04-08T11:34:44.916Z,7.60
2023-04-08T11:37:14.448Z,7.80
2023-04-08T11:39:47.865Z,7.80
2023-04-08T11:42:33.624Z,7.70
2023-04-08T11:45:12.306Z,7.50
2023-04-08T11:47:40.927Z,7.50
2023-04-08T11:50:10.175Z,7.40
2023-04-08T11:52:51.928Z,7.50
2023-04-08T11:55:31.643Z,7.50
2023-04-08T11:58:04.817Z,7.80
2023-04-08T12:00:34.776Z,8.00
2023-04-08T12:03:06.193Z,8.00
2023-04-08T12:05:34.688Z,7.90
2023-04-08T12:08:04.081Z,7.70
2023-04-08T12:10:32.978Z,7.70
2023-04-08T12:13:01.090Z,7.60
2023-04-08T12:15:29.497Z,7.60
2023-04-08T12:17:57.644Z,7.70
2023-04-08T12:20:25.841Z,7.70
2023-04-08T12:22:53.882Z,7.70
2023-04-08T12:25:22.249Z,7.70
2023-04-08T12:27:50.037Z,7.80
2023-04-08T12:30:18.349Z,7.80
2023-04-08T12:32:48.035Z,7.80
2023-04-08T12:35:16.738Z,7.90
2023-04-08T12:37:44.709Z,7.90
2023-04-08T12:40:13.466Z,7.80
2023-04-08T12:42:41.213Z,7.80
2023-04-08T12:45:09.735Z,7.80
2023-04-08T12:47:37.363Z,7.70
2023-04-08T12:50:06.688Z,7.70
2023-04-08T12:52:34.475Z,7.70
2023-04-08T12:55:05.278Z,7.70
2023-04-08T12:57:33.172Z,7.80
2023-04-08T13:00:01.275Z,7.80
2023-04-08T13:02:29.471Z,7.80
2023-04-08T13:04:58.160Z,7.90
2023-04-08T13:07:26.127Z,8.00
2023-04-08T13:09:54.200Z,8.30
2023-04-08T13:12:22.352Z,8.80
2023-04-08T13:14:50.337Z,9.20
2023-04-08T13:17:18.124Z,9.40
2023-04-08T13:19:46.425Z,9.50
2023-04-08T13:22:17.258Z,9.60
2023-04-08T13:24:45.465Z,9.40
2023-04-08T13:27:13.308Z,9.20
2023-04-08T13:29:41.571Z,9.00
2023-04-08T13:32:09.629Z,8.90
2023-04-08T13:34:37.830Z,8.80
2023-04-08T13:37:05.695Z,8.70
2023-04-08T13:39:33.873Z,8.60
2023-04-08T13:42:03.148Z,8.50
2023-04-08T13:44:33.520Z,8.50
2023-04-08T13:47:01.399Z,8.50
2023-04-08T13:49:29.651Z,8.50
2023-04-08T13:51:57.564Z,8.50
2023-04-08T13:54:26.163Z,8.60
2023-04-08T13:56:54.125Z,8.60
2023-04-08T13:59:22.314Z,8.60
2023-04-08T14:01:54.363Z,8.60
2023-04-08T14:04:22.791Z,8.50
2023-04-08T14:06:51.883Z,8.50
2023-04-08T14:09:20.798Z,8.50
2023-04-08T14:11:48.573Z,8.50
2023-04-08T14:14:16.940Z,8.60
2023-04-08T14:16:45.301Z,8.70
2023-04-08T14:19:14.003Z,8.80
2023-04-08T14:21:41.779Z,8.80
2023-04-08T14:24:10.668Z,8.80
2023-04-08T14:26:38.757Z,8.80
2023-04-08T14:29:08.039Z,8.80
2023-04-08T14:31:36.782Z,8.80
2023-04-08T14:34:05.330Z,8.80
2023-04-08T14:36:33.294Z,8.70
2023-04-08T14:39:01.610Z,8.70
2023-04-08T14:41:29.455Z,8.80
2023-04-08T14:43:58.447Z,8.80
2023-04-08T14:46:28.766Z,8.70
2023-04-08T14:48:57.392Z,8.60
2023-04-08T14:51:25.219Z,8.60
2023-04-08T14:53:53.603Z,8.60
2023-04-08T14:56:21.349Z,8.60
2023-04-08T14:58:49.887Z,8.60
2023-04-08T15:01:17.950Z,8.60
2023-04-08T15:03:46.776Z,8.60
2023-04-08T15:06:18.052Z,8.70
2023-04-08T15:08:46.330Z,8.80
2023-04-08T15:11:14.216Z,8.90
2023-04-08T15:13:42.434Z,9.00
2023-04-08T15:16:10.562Z,9.00
2023-04-08T15:18:39.088Z,9.00
2023-04-08T15:21:06.837Z,9.00
2023-04-08T15:23:35.064Z,8.90
2023-04-08T15:26:02.664Z,8.80
2023-04-08T15:28:30.995Z,8.80
2023-04-08T15:30:58.810Z,8.60
2023-04-08T15:33:27.425Z,8.60
2023-04-08T15:35:55.345Z,8.60
2023-04-08T15:38:23.618Z,8.60
2023-04-08T15:40:53.429Z,8.60
2023-04-08T15:43:23.097Z,8.60
2023-04-08T15:45:51.616Z,8.50
2023-04-08T15:48:20.483Z,8.40
2023-04-08T15:50:48.331Z,8.30
2023-04-08T15:53:17.151Z,8.30
2023-04-08T15:55:44.977Z,8.30
2023-04-08T15:58:13.048Z,8.40
2023-04-08T16:00:41.472Z,8.40
2023-04-08T16:03:12.449Z,8.40
2023-04-08T16:05:41.957Z,8.30
2023-04-08T16:08:10.374Z,8.30
2023-04-08T16:10:38.084Z,8.30
2023-04-08T16:13:06.655Z,8.40
2023-04-08T16:15:35.014Z,8.40
2023-04-08T16:18:03.848Z,8.40
2023-04-08T16:20:31.656Z,8.30
2023-04-08T16:22:59.910Z,8.20
2023-04-08T16:25:28.399Z,8.00
2023-04-08T16:27:56.799Z,8.00
2023-04-08T16:30:24.658Z,7.90
2023-04-08T16:32:54.334Z,7.80
2023-04-08T16:35:22.719Z,7.80
2023-04-08T16:37:50.988Z,7.60
2023-04-08T16:40:18.822Z,7.50
2023-04-08T16:42:48.318Z,7.40
2023-04-08T16:45:16.439Z,7.30
2023-04-08T16:47:46.277Z,7.20
2023-04-08T16:50:14.163Z,7.20
2023-04-08T16:52:49.543Z,7.20
2023-04-08T16:55:18.038Z,7.20
2023-04-08T16:57:46.347Z,7.10
2023-04-08T17:00:16.877Z,7.10
2023-04-08T17:02:47.638Z,7.00
2023-04-08T17:05:16.168Z,7.00
2023-04-08T17:07:44.632Z,6.90
2023-04-08T17:10:12.437Z,6.80
2023-04-08T17:12:40.931Z,6.80
2023-04-08T17:15:09.429Z,6.70
2023-04-08T17:17:37.766Z,6.60
2023-04-08T17:20:06.264Z,6.50
2023-04-08T17:22:34.432Z,6.30
2023-04-08T17:25:03.206Z,6.20
2023-04-08T17:27:31.525Z,6.10
2023-04-08T17:29:59.671Z,5.90
2023-04-08T17:32:28.213Z,5.80
2023-04-08T17:34:56.106Z,5.70
2023-04-08T17:37:24.447Z,5.60
2023-04-08T17:39:52.626Z,5.50
2023-04-08T17:42:22.965Z,5.40
2023-04-08T17:44:50.907Z,5.30
2023-04-08T17:47:21.200Z,5.20
2023-04-08T17:49:49.005Z,5.10
2023-04-08T17:52:17.619Z,5.00
2023-04-08T17:54:45.747Z,5.00
2023-04-08T17:57:14.565Z,4.90
2023-04-08T17:59:42.585Z,4.80
2023-04-08T18:02:10.950Z,4.70
2023-04-08T18:04:39.670Z,4.70
2023-04-08T18:07:08.340Z,4.60
2023-04-08T18:09:38.289Z,4.50
2023-04-08T18:12:07.661Z,4.50
2023-04-08T18:14:36.256Z,4.50
2023-04-08T18:17:04.825Z,4.50
2023-04-08T18:19:32.792Z,4.60
2023-04-08T18:22:00.912Z,4.70
2023-04-08T18:24:28.712Z,4.70
2023-04-08T18:27:04.001Z,4.80
2023-04-08T18:29:32.733Z,4.90
2023-04-08T18:32:01.223Z,4.90
2023-04-08T18:34:29.113Z,4.80
2023-04-08T18:36:58.212Z,4.80
2023-04-08T18:39:26.821Z,4.80
2023-04-08T18:41:54.840Z,4.70
2023-04-08T18:44:23.740Z,4.70
2023-04-08T18:46:52.032Z,4.70
2023-04-08T18:49:19.907Z,4.70
2023-04-08T18:51:59.060Z,4.50
2023-04-08T18:54:30.321Z,4.50
2023-04-08T18:56:59.669Z,4.50
2023-04-08T18:59:30.782Z,4.50
2023-04-08T19:01:59.093Z,4.40
2023-04-08T19:04:27.071Z,4.40
2023-04-08T19:06:55.409Z,4.40
2023-04-08T19:09:23.903Z,4.40
2023-04-08T19:11:52.186Z,4.40
2023-04-08T19:14:20.054Z,4.50
2023-04-08T19:16:48.411Z,4.50
2023-04-08T19:19:16.550Z,4.50
2023-04-08T19:21:44.796Z,4.50
2023-04-08T19:24:12.641Z,4.40
2023-04-08T19:26:40.862Z,4.40
2023-04-08T19:29:09.797Z,4.30
2023-04-08T19:31:37.994Z,4.30
2023-04-08T19:34:05.880Z,4.20
2023-04-08T19:36:34.513Z,4.10
2023-04-08T19:39:03.862Z,4.10
2023-04-08T19:41:32.119Z,4.00
2023-04-08T19:43:59.865Z,3.90
2023-04-08T19:46:29.843Z,3.90
2023-04-08T19:48:59.187Z,3.80
2023-04-08T19:51:27.748Z,3.70
2023-04-08T19:53:56.752Z,3.60
2023-04-08T19:56:25.905Z,3.50
2023-04-08T19:58:53.931Z,3.50
2023-04-08T20:01:23.541Z,3.50
2023-04-08T20:03:52.535Z,3.50
2023-04-08T20:06:21.424Z,3.50
2023-04-08T20:08:50.720Z,3.50
2023-04-08T20:11:19.121Z,3.50
2023-04-08T20:13:51.769Z,3.50
2023-04-08T20:16:21.233Z,3.50
2023-04-08T20:18:49.315Z,3.60
2023-04-08T20:21:18.555Z,3.70
2023-04-08T20:23:46.644Z,3.70
2023-04-08T20:26:15.806Z,3.80
2023-04-08T20:28:45.472Z,3.90
2023-04-08T20:31:14.743Z,3.90
2023-04-08T20:33:44.670Z,3.90
2023-04-08T20:36:13.691Z,4.00
2023-04-08T20:38:42.919Z,4.00
2023-04-08T20:41:11.720Z,4.10
2023-04-08T20:43:40.664Z,4.10
2023-04-08T20:46:09.395Z,4.10
2023-04-08T20:48:37.158Z,4.20
2023-04-08T20:51:05.677Z,4.10
2023-04-08T20:53:34.738Z,4.20
2023-04-08T20:56:03.916Z,4.20
2023-04-08T20:58:31.802Z,4.20
2023-04-08T21:01:00.602Z,4.20
2023-04-08T21:03:28.629Z,4.20
2023-04-08T21:05:57.210Z,4.20
2023-04-08T21:08:25.195Z,4.20
2023-04-08T21:10:54.690Z,4.10
2023-04-08T21:13:22.508Z,4.10
2023-04-08T21:15:50.776Z,4.00
2023-04-08T21:18:18.647Z,3.90
2023-04-08T21:20:46.905Z,3.90
2023-04-08T21:23:14.792Z,3.90
2023-04-08T21:25:43.430Z,3.90
2023-04-08T21:28:11.715Z,3.90
2023-04-08T21:30:39.914Z,3.90
2023-04-08T21:33:08.250Z,3.90
2023-04-08T21:35:36.770Z,3.90
2023-04-08T21:38:04.791Z,4.00
2023-04-08T21:40:34.300Z,4.00
2023-04-08T21:43:01.989Z,4.00
2023-04-08T21:45:30.361Z,4.10
2023-04-08T21:47:58.184Z,4.10
2023-04-08T21:50:26.232Z,4.10
2023-04-08T21:52:54.030Z,4.10
2023-04-08T21:55:22.217Z,4.20
2023-04-08T21:57:49.964Z,4.20
2023-04-08T22:00:18.509Z,4.30
2023-04-08T22:02:46.535Z,4.30
2023-04-08T22:05:14.877Z,4.30
2023-04-08T22:07:42.594Z,4.20
2023-04-08T22:10:11.421Z,4.20
2023-04-08T22:12:39.201Z,4.20
2023-04-08T22:15:08.614Z,4.20
2023-04-08T22:17:36.519Z,4.10
2023-04-08T22:20:05.118Z,4.10
2023-04-08T22:22:32.971Z,4.10
2023-04-08T22:25:01.163Z,4.00
2023-04-08T22:27:29.496Z,4.00
2023-04-08T22:29:57.703Z,4.00
2023-04-08T22:32:25.707Z,4.00
2023-04-08T22:34:53.629Z,4.00
2023-04-08T22:37:21.445Z,4.00
2023-04-08T22:39:49.993Z,4.00
2023-04-08T22:42:18.451Z,4.00
2023-04-08T22:44:46.697Z,4.00
2023-04-08T22:47:14.366Z,4.00
2023-04-08T22:49:43.033Z,4.00
2023-04-08T22:52:11.103Z,4.00
2023-04-08T22:54:39.265Z,4.00
2023-04-08T22:57:07.055Z,4.00
2023-04-08T22:59:35.054Z,4.00
2023-04-08T23:02:03.040Z,4.00
2023-04-08T23:04:31.685Z,4.00
2023-04-08T23:06:59.450Z,4.00
2023-04-08T23:09:28.590Z,4.10
2023-04-08T23:11:56.449Z,4.10
2023-04-08T23:14:25.452Z,4.10
2023-04-08T23:16:53.073Z,4.10
2023-04-08T23:19:21.194Z,4.00
2023-04-08T23:21:49.506Z,4.10
2023-04-08T23:24:17.633Z,4.10
2023-04-08T23:26:45.779Z,4.10
2023-04-08T23:29:13.946Z,4.00
2023-04-08T23:31:41.826Z,4.00
2023-04-08T23:34:10.060Z,3.90
2023-04-08T23:36:38.168Z,3.90
2023-04-08T23:39:06.859Z,3.90
2023-04-08T23:41:34.632Z,3.90
2023-04-08T23:44:02.700Z,3.80
2023-04-08T23:46:30.485Z,3.70
2023-04-08T23:48:58.420Z,3.70
2023-04-08T23:51:28.278Z,3.80
2023-04-08T23:53:56.343Z,3.80
2023-04-08T23:56:24.198Z,3.80
2023-04-08T23:58:52.493Z,3.90
